createdAt,value
2023-01-17T00:01:18.538Z,5.50
2023-01-17T00:04:24.854Z,5.50
2023-01-17T00:07:32.635Z,5.50
2023-01-17T00:10:24.714Z,5.50
2023-01-17T00:13:16.794Z,5.40
2023-01-17T00:16:21.446Z,5.50
2023-01-17T00:19:28.539Z,5.50
2023-01-17T00:22:40.650Z,5.50
2023-01-17T00:25:51.311Z,5.50
2023-01-17T00:28:43.533Z,5.50
2023-01-17T00:31:33.586Z,5.50
2023-01-17T00:34:21.186Z,5.50
2023-01-17T00:37:08.926Z,5.50
2023-01-17T00:39:56.558Z,5.50
2023-01-17T00:42:45.297Z,5.60
2023-01-17T00:45:55.257Z,5.60
2023-01-17T00:49:01.761Z,5.60
2023-01-17T00:52:07.957Z,5.70
2023-01-17T00:55:14.157Z,5.50
2023-01-17T00:58:25.171Z,5.50
2023-01-17T01:01:36.376Z,5.70
2023-01-17T01:04:42.658Z,5.70
2023-01-17T01:07:48.473Z,5.70
2023-01-17T01:10:56.371Z,5.70
2023-01-17T01:14:02.285Z,5.60
2023-01-17T01:17:09.808Z,5.60
2023-01-17T01:20:15.955Z,5.70
2023-01-17T01:23:23.695Z,5.70
2023-01-17T01:26:30.177Z,5.60
2023-01-17T01:29:36.720Z,5.60
2023-01-17T01:32:44.436Z,5.80
2023-01-17T01:35:33.325Z,5.80
2023-01-17T01:38:24.320Z,5.80
2023-01-17T01:41:13.465Z,5.70
2023-01-17T01:44:02.235Z,5.80
2023-01-17T01:46:51.585Z,5.70
2023-01-17T01:49:41.941Z,5.80
2023-01-17T01:52:33.995Z,5.80
2023-01-17T01:55:26.598Z,5.70
2023-01-17T01:58:20.063Z,5.70
2023-01-17T02:01:09.500Z,5.70
2023-01-17T02:03:59.996Z,5.70
2023-01-17T02:06:57.390Z,5.80
2023-01-17T02:09:46.849Z,5.80
2023-01-17T02:12:36.458Z,5.80
2023-01-17T02:15:31.593Z,5.90
2023-01-17T02:18:29.515Z,5.80
2023-01-17T02:21:25.841Z,5.80
2023-01-17T02:24:47.428Z,5.80
2023-01-17T02:27:52.734Z,5.80
2023-01-17T02:30:45.668Z,5.80
2023-01-17T02:33:40.713Z,5.90
2023-01-17T02:36:34.141Z,5.80
2023-01-17T02:39:28.427Z,5.90
2023-01-17T02:42:20.725Z,5.90
2023-01-17T02:45:10.878Z,5.80
2023-01-17T02:48:01.000Z,5.80
2023-01-17T02:51:09.207Z,5.80
2023-01-17T02:54:19.773Z,5.80
2023-01-17T02:57:19.604Z,5.70
2023-01-17T03:00:19.013Z,5.80
2023-01-17T03:03:23.268Z,5.80
2023-01-17T03:06:14.938Z,5.80
2023-01-17T03:09:06.676Z,5.80
2023-01-17T03:11:55.573Z,5.80
2023-01-17T03:14:44.362Z,5.90
2023-01-17T03:17:34.400Z,5.90
2023-01-17T03:20:24.464Z,5.90
2023-01-17T03:23:13.407Z,5.90
2023-01-17T03:26:02.109Z,6.00
2023-01-17T03:28:50.911Z,5.80
2023-01-17T03:31:39.997Z,5.80
2023-01-17T03:34:28.727Z,5.90
2023-01-17T03:37:19.019Z,5.90
2023-01-17T03:40:09.027Z,5.80
2023-01-17T03:42:58.005Z,5.80
2023-01-17T03:45:51.196Z,5.70
2023-01-17T03:48:44.500Z,5.80
2023-01-17T03:51:33.465Z,5.80
2023-01-17T03:54:25.862Z,5.90
2023-01-17T03:57:15.820Z,5.90
2023-01-17T04:00:05.427Z,5.90
2023-01-17T04:02:55.624Z,5.80
2023-01-17T04:05:44.466Z,5.90
2023-01-17T04:08:33.235Z,5.90
2023-01-17T04:11:23.418Z,5.90
2023-01-17T04:14:12.214Z,5.80
2023-01-17T04:17:01.549Z,5.80
2023-01-17T04:19:50.610Z,5.80
2023-01-17T04:22:39.785Z,5.70
2023-01-17T04:25:30.623Z,5.70
2023-01-17T04:28:22.963Z,5.80
2023-01-17T04:31:17.018Z,6.00
2023-01-17T04:34:06.695Z,5.90
2023-01-17T04:36:55.535Z,5.80
2023-01-17T04:39:44.274Z,5.90
2023-01-17T04:42:33.126Z,5.80
2023-01-17T04:45:23.431Z,5.90
2023-01-17T04:48:13.044Z,5.90
2023-01-17T04:51:02.056Z,5.90
2023-01-17T04:53:50.850Z,5.70
2023-01-17T04:56:39.557Z,5.80
2023-01-17T04:59:28.372Z,5.90
2023-01-17T05:02:18.819Z,5.90
2023-01-17T05:05:08.475Z,5.90
2023-01-17T05:07:57.922Z,5.80
2023-01-17T05:10:47.386Z,5.70
2023-01-17T05:13:36.360Z,5.80
2023-01-17T05:16:25.313Z,5.80
2023-01-17T05:19:29.471Z,5.80
2023-01-17T05:22:20.505Z,5.80
2023-01-17T05:25:11.562Z,5.80
2023-01-17T05:28:01.187Z,5.80
2023-01-17T05:30:51.319Z,5.70
2023-01-17T05:33:40.175Z,5.70
2023-01-17T05:36:30.955Z,5.70
2023-01-17T05:39:20.167Z,5.60
2023-01-17T05:42:08.893Z,5.60
2023-01-17T05:45:00.650Z,5.70
2023-01-17T05:47:50.825Z,5.60
2023-01-17T05:50:41.785Z,5.70
2023-01-17T05:53:42.818Z,5.70
2023-01-17T05:57:07.455Z,5.70
2023-01-17T05:59:59.041Z,5.60
2023-01-17T06:02:50.672Z,5.70
2023-01-17T06:05:40.141Z,5.50
2023-01-17T06:08:29.005Z,5.60
2023-01-17T06:11:25.301Z,5.70
2023-01-17T06:14:14.242Z,5.70
2023-01-17T06:17:03.516Z,5.50
2023-01-17T06:19:54.678Z,5.50
2023-01-17T06:22:44.534Z,5.50
2023-01-17T06:25:37.787Z,5.50
2023-01-17T06:28:30.417Z,5.50
2023-01-17T06:31:19.684Z,5.50
2023-01-17T06:34:08.553Z,5.60
2023-01-17T06:36:57.409Z,5.60
2023-01-17T06:39:46.274Z,5.50
2023-01-17T06:42:35.562Z,5.40
2023-01-17T06:45:25.920Z,5.40
2023-01-17T06:48:17.837Z,5.40
2023-01-17T06:51:06.837Z,5.30
2023-01-17T06:53:55.796Z,5.30
2023-01-17T06:56:44.615Z,5.30
2023-01-17T06:59:33.393Z,5.30
2023-01-17T07:02:23.809Z,5.30
2023-01-17T07:05:12.569Z,5.30
2023-01-17T07:08:03.650Z,5.20
2023-01-17T07:10:53.067Z,5.30
2023-01-17T07:13:42.405Z,5.20
2023-01-17T07:16:31.417Z,5.20
2023-01-17T07:19:21.886Z,5.30
2023-01-17T07:22:11.912Z,5.30
2023-01-17T07:25:02.963Z,5.20
2023-01-17T07:27:57.619Z,5.10
2023-01-17T07:30:46.582Z,5.20
2023-01-17T07:33:36.827Z,5.20
2023-01-17T07:36:37.466Z,5.30
2023-01-17T07:39:26.383Z,5.20
2023-01-17T07:42:18.635Z,5.20
2023-01-17T07:45:19.809Z,5.20
2023-01-17T07:48:09.752Z,5.30
2023-01-17T07:51:03.583Z,5.30
2023-01-17T07:53:59.327Z,5.40
2023-01-17T07:57:01.462Z,5.40
2023-01-17T07:59:51.388Z,5.40
2023-01-17T08:02:40.831Z,5.40
2023-01-17T08:05:30.785Z,5.40
2023-01-17T08:08:19.555Z,5.40
2023-01-17T08:11:09.963Z,5.40
2023-01-17T08:14:00.020Z,5.50
2023-01-17T08:16:48.953Z,5.40
2023-01-17T08:19:37.887Z,5.50
2023-01-17T08:22:26.656Z,5.50
2023-01-17T08:25:15.485Z,5.60
2023-01-17T08:28:06.529Z,5.60
2023-01-17T08:30:55.385Z,5.70
2023-01-17T08:33:44.231Z,5.70
2023-01-17T08:36:33.447Z,5.80
2023-01-17T08:39:22.575Z,5.80
2023-01-17T08:42:11.277Z,5.80
2023-01-17T08:45:01.728Z,5.90
2023-01-17T08:47:50.687Z,5.90
2023-01-17T08:50:39.538Z,6.00
2023-01-17T08:53:28.390Z,6.10
2023-01-17T08:56:17.105Z,6.10
2023-01-17T08:59:05.913Z,6.10
2023-01-17T09:01:58.374Z,6.10
2023-01-17T09:04:47.974Z,6.10
2023-01-17T09:07:36.743Z,6.10
2023-01-17T09:10:25.666Z,6.10
2023-01-17T09:13:14.404Z,6.30
2023-01-17T09:16:03.921Z,6.30
2023-01-17T09:18:57.355Z,6.30
2023-01-17T09:21:46.211Z,6.30
2023-01-17T09:24:35.260Z,6.30
2023-01-17T09:27:24.135Z,6.30
2023-01-17T09:30:13.819Z,6.40
2023-01-17T09:33:02.810Z,6.40
2023-01-17T09:35:52.971Z,6.40
2023-01-17T09:38:41.857Z,6.30
2023-01-17T09:41:33.248Z,6.40
2023-01-17T09:44:28.431Z,6.40
2023-01-17T09:47:22.975Z,6.50
2023-01-17T09:50:30.549Z,6.50
2023-01-17T09:53:22.035Z,6.50
2023-01-17T09:56:15.703Z,6.40
2023-01-17T09:59:32.801Z,6.40
2023-01-17T10:02:50.314Z,6.50
2023-01-17T10:05:51.515Z,6.60
2023-01-17T10:08:55.361Z,6.50
2023-01-17T10:11:55.283Z,6.50
2023-01-17T10:15:03.287Z,6.50
2023-01-17T10:18:01.440Z,6.70
2023-01-17T10:20:59.105Z,6.70
2023-01-17T10:24:17.862Z,6.80
2023-01-17T10:27:17.096Z,6.60
2023-01-17T10:30:17.945Z,6.60
2023-01-17T10:33:16.850Z,6.60
2023-01-17T10:36:11.997Z,6.50
2023-01-17T10:39:03.872Z,6.60
2023-01-17T10:41:59.441Z,6.50
2023-01-17T10:44:54.462Z,6.50
2023-01-17T10:47:47.431Z,6.70
2023-01-17T10:50:46.991Z,6.80
2023-01-17T10:53:46.207Z,6.80
2023-01-17T10:56:36.891Z,6.70
2023-01-17T10:59:31.300Z,6.80
2023-01-17T11:02:25.788Z,6.90
2023-01-17T11:05:22.677Z,6.60
2023-01-17T11:08:13.652Z,6.70
2023-01-17T11:11:05.484Z,6.70
2023-01-17T11:13:56.086Z,6.80
2023-01-17T11:16:46.697Z,6.80
2023-01-17T11:19:37.430Z,6.70
2023-01-17T11:22:26.691Z,6.80
2023-01-17T11:25:23.513Z,6.70
2023-01-17T11:28:23.106Z,6.80
2023-01-17T11:31:26.576Z,6.90
2023-01-17T11:34:19.406Z,6.70
2023-01-17T11:37:18.386Z,6.80
2023-01-17T11:40:20.099Z,6.70
2023-01-17T11:43:24.748Z,6.80
2023-01-17T11:46:18.033Z,6.80
2023-01-17T11:49:06.890Z,6.90
2023-01-17T11:51:58.189Z,6.90
2023-01-17T11:54:49.267Z,6.90
2023-01-17T11:57:37.982Z,6.90
2023-01-17T12:00:34.586Z,6.90
2023-01-17T12:03:36.880Z,7.00
2023-01-17T12:06:47.819Z,7.00
2023-01-17T12:09:51.053Z,6.90
2023-01-17T12:13:09.678Z,7.00
2023-01-17T12:16:26.929Z,6.90
2023-01-17T12:19:36.921Z,6.90
2023-01-17T12:22:35.977Z,6.90
2023-01-17T12:25:47.505Z,6.80
2023-01-17T12:28:56.761Z,6.60
2023-01-17T12:31:50.665Z,6.80
2023-01-17T12:34:47.182Z,6.80
2023-01-17T12:37:40.230Z,6.80
2023-01-17T12:40:34.661Z,6.90
2023-01-17T12:43:31.914Z,6.80
2023-01-17T12:46:28.492Z,6.80
2023-01-17T12:49:23.962Z,6.90
2023-01-17T12:52:20.107Z,6.80
2023-01-17T12:55:15.564Z,6.90
2023-01-17T12:58:12.153Z,6.90
2023-01-17T13:01:05.994Z,6.90
2023-01-17T13:04:04.930Z,6.80
2023-01-17T13:07:03.869Z,6.70
2023-01-17T13:10:06.096Z,6.80
2023-01-17T13:13:03.166Z,6.80
2023-01-17T13:16:01.493Z,6.90
2023-01-17T13:18:54.373Z,7.00
2023-01-17T13:21:43.802Z,6.80
2023-01-17T13:24:42.726Z,6.80
2023-01-17T13:28:09.181Z,6.80
2023-01-17T13:31:28.639Z,6.70
2023-01-17T13:34:46.079Z,6.70
2023-01-17T13:38:07.549Z,6.60
2023-01-17T13:40:58.418Z,6.70
2023-01-17T13:44:08.336Z,6.70
2023-01-17T13:47:01.946Z,6.70
2023-01-17T13:49:56.377Z,6.70
2023-01-17T13:52:45.138Z,6.80
2023-01-17T13:55:47.475Z,6.80
2023-01-17T13:58:58.548Z,6.80
2023-01-17T14:01:54.547Z,6.70
2023-01-17T14:05:10.971Z,6.70
2023-01-17T14:08:03.743Z,6.60
2023-01-17T14:10:55.303Z,6.60
2023-01-17T14:13:44.302Z,6.50
2023-01-17T14:16:33.635Z,6.50
2023-01-17T14:19:27.771Z,6.50
2023-01-17T14:22:25.725Z,6.50
2023-01-17T14:25:17.689Z,6.60
2023-01-17T14:28:22.873Z,6.60
2023-01-17T14:31:14.375Z,6.60
2023-01-17T14:34:13.950Z,6.50
2023-01-17T14:37:07.761Z,6.50
2023-01-17T14:39:58.252Z,6.60
2023-01-17T14:42:49.758Z,6.60
2023-01-17T14:45:39.922Z,6.60
2023-01-17T14:48:29.435Z,6.50
2023-01-17T14:51:23.164Z,6.50
2023-01-17T14:54:22.282Z,6.40
2023-01-17T14:57:26.235Z,6.40
2023-01-17T15:00:21.328Z,6.30
2023-01-17T15:03:13.620Z,6.40
2023-01-17T15:06:13.085Z,6.30
2023-01-17T15:09:03.404Z,6.40
2023-01-17T15:11:53.441Z,6.40
2023-01-17T15:14:45.906Z,6.30
2023-01-17T15:17:34.846Z,6.30
2023-01-17T15:20:24.044Z,6.30
2023-01-17T15:23:19.452Z,6.30
2023-01-17T15:26:12.444Z,6.30
2023-01-17T15:29:05.757Z,6.20
2023-01-17T15:31:59.737Z,6.20
2023-01-17T15:34:50.281Z,6.30
2023-01-17T15:37:41.833Z,6.20
2023-01-17T15:40:33.346Z,6.30
2023-01-17T15:43:31.494Z,6.30
2023-01-17T15:46:26.984Z,6.30
2023-01-17T15:49:19.772Z,6.30
2023-01-17T15:52:17.179Z,6.20
2023-01-17T15:55:15.635Z,6.30
2023-01-17T15:58:06.054Z,6.20
2023-01-17T16:00:57.302Z,6.20
2023-01-17T16:03:55.818Z,6.20
2023-01-17T16:06:46.898Z,6.10
2023-01-17T16:09:43.773Z,6.00
2023-01-17T16:12:32.966Z,6.10
2023-01-17T16:15:22.208Z,5.90
2023-01-17T16:18:16.790Z,5.90
2023-01-17T16:21:14.893Z,5.90
2023-01-17T16:24:07.228Z,5.80
2023-01-17T16:26:56.799Z,5.80
2023-01-17T16:29:46.142Z,5.90
2023-01-17T16:32:35.575Z,5.90
2023-01-17T16:35:27.935Z,5.90
2023-01-17T16:38:17.789Z,5.80
2023-01-17T16:41:08.612Z,5.80
2023-01-17T16:44:02.304Z,5.70
2023-01-17T16:46:51.386Z,5.70
2023-01-17T16:49:40.211Z,5.70
2023-01-17T16:52:29.005Z,5.80
2023-01-17T16:55:22.129Z,5.70
2023-01-17T16:58:12.576Z,5.70
2023-01-17T17:01:01.694Z,5.70
2023-01-17T17:03:50.679Z,5.70
2023-01-17T17:06:41.325Z,5.60
2023-01-17T17:09:30.257Z,5.50
2023-01-17T17:12:19.631Z,5.60
2023-01-17T17:15:11.522Z,5.60
2023-01-17T17:18:00.633Z,5.60
2023-01-17T17:20:49.802Z,5.70
2023-01-17T17:23:39.432Z,5.70
2023-01-17T17:26:31.273Z,5.70
2023-01-17T17:29:20.244Z,5.60
2023-01-17T17:32:11.735Z,5.70
2023-01-17T17:35:00.979Z,5.70
2023-01-17T17:37:49.983Z,5.70
2023-01-17T17:40:39.109Z,5.60
2023-01-17T17:43:28.113Z,5.60
2023-01-17T17:46:17.315Z,5.60
2023-01-17T17:49:07.673Z,5.60
2023-01-17T17:51:56.582Z,5.60
2023-01-17T17:54:45.358Z,5.70
2023-01-17T17:57:34.369Z,5.60
2023-01-17T18:00:23.617Z,5.50
2023-01-17T18:03:12.575Z,5.50
2023-01-17T18:06:08.464Z,5.60
2023-01-17T18:08:57.260Z,5.60
2023-01-17T18:11:46.216Z,5.50
2023-01-17T18:14:35.082Z,5.50
2023-01-17T18:17:23.915Z,5.50
2023-01-17T18:20:14.781Z,5.50
2023-01-17T18:23:04.997Z,5.40
2023-01-17T18:25:54.206Z,5.30
2023-01-17T18:28:43.016Z,5.20
2023-01-17T18:31:32.970Z,5.20
2023-01-17T18:34:24.469Z,5.20
2023-01-17T18:37:13.259Z,5.20
2023-01-17T18:40:03.564Z,5.10
2023-01-17T18:42:52.552Z,5.20
2023-01-17T18:45:41.589Z,5.00
2023-01-17T18:48:30.592Z,5.00
2023-01-17T18:51:21.878Z,5.00
2023-01-17T18:54:10.555Z,5.00
2023-01-17T18:57:00.786Z,5.00
2023-01-17T18:59:49.712Z,5.00
2023-01-17T19:02:38.691Z,5.00
2023-01-17T19:05:27.416Z,5.00
2023-01-17T19:08:16.911Z,5.10
2023-01-17T19:11:06.067Z,5.00
2023-01-17T19:13:57.644Z,5.00
2023-01-17T19:16:46.725Z,5.10
2023-01-17T19:19:35.492Z,5.00
2023-01-17T19:22:24.268Z,5.00
2023-01-17T19:25:13.469Z,5.00
2023-01-17T19:28:02.795Z,5.00
2023-01-17T19:31:03.542Z,4.90
2023-01-17T19:33:54.795Z,4.80
2023-01-17T19:36:43.823Z,4.80
2023-01-17T19:39:33.390Z,4.80
2023-01-17T19:42:22.794Z,4.80
2023-01-17T19:45:14.106Z,4.90
2023-01-17T19:48:04.752Z,4.80
2023-01-17T19:50:54.680Z,4.80
2023-01-17T19:53:43.569Z,4.90
2023-01-17T19:56:32.571Z,4.80
2023-01-17T19:59:22.752Z,4.70
2023-01-17T20:02:12.482Z,4.80
2023-01-17T20:05:03.292Z,4.70
2023-01-17T20:07:52.839Z,4.80
2023-01-17T20:10:41.732Z,4.80
2023-01-17T20:13:30.799Z,4.90
2023-01-17T20:16:19.635Z,4.80
2023-01-17T20:19:08.427Z,4.80
2023-01-17T20:21:58.795Z,4.70
2023-01-17T20:24:48.616Z,4.70
2023-01-17T20:27:37.708Z,4.70
2023-01-17T20:30:30.218Z,4.70
2023-01-17T20:33:19.050Z,4.80
2023-01-17T20:36:11.391Z,4.70
2023-01-17T20:39:05.044Z,4.70
2023-01-17T20:41:53.835Z,4.70
2023-01-17T20:44:42.591Z,4.60
2023-01-17T20:47:31.654Z,4.70
2023-01-17T20:50:20.384Z,4.70
2023-01-17T20:53:09.274Z,4.70
2023-01-17T20:55:59.463Z,4.70
2023-01-17T20:58:49.562Z,4.60
2023-01-17T21:01:40.649Z,4.60
2023-01-17T21:04:29.789Z,4.70
2023-01-17T21:07:19.404Z,4.70
2023-01-17T21:10:08.869Z,4.70
2023-01-17T21:12:59.849Z,4.70
2023-01-17T21:15:50.260Z,4.70
2023-01-17T21:18:39.510Z,4.70
2023-01-17T21:21:30.316Z,4.70
2023-01-17T21:24:20.239Z,4.70
2023-01-17T21:27:09.257Z,4.70
2023-01-17T21:29:59.765Z,4.80
2023-01-17T21:32:48.805Z,5.00
2023-01-17T21:35:37.775Z,4.80
2023-01-17T21:38:27.046Z,4.80
2023-01-17T21:41:15.845Z,4.90
2023-01-17T21:44:08.032Z,4.80
2023-01-17T21:46:59.985Z,4.70
2023-01-17T21:49:48.799Z,4.70
2023-01-17T21:52:37.679Z,4.70
2023-01-17T21:55:43.737Z,4.70
2023-01-17T21:58:44.923Z,4.70
2023-01-17T22:01:34.778Z,4.70
2023-01-17T22:04:25.750Z,4.70
2023-01-17T22:07:14.543Z,4.60
2023-01-17T22:10:03.305Z,4.50
2023-01-17T22:12:53.576Z,4.60
2023-01-17T22:15:42.706Z,4.60
2023-01-17T22:18:32.255Z,4.60
2023-01-17T22:21:24.596Z,4.70
2023-01-17T22:24:16.112Z,4.70
2023-01-17T22:27:05.353Z,4.70
2023-01-17T22:29:54.173Z,4.60
2023-01-17T22:32:42.920Z,4.70
2023-01-17T22:35:32.973Z,4.50
2023-01-17T22:38:23.490Z,4.40
2023-01-17T22:41:16.420Z,4.40
2023-01-17T22:44:05.649Z,4.30
2023-01-17T22:46:54.641Z,4.20
2023-01-17T22:49:43.385Z,4.20
2023-01-17T22:52:32.733Z,4.20
2023-01-17T22:55:22.821Z,4.10
2023-01-17T22:58:11.569Z,4.10
2023-01-17T23:01:06.656Z,4.10
2023-01-17T23:03:57.536Z,4.10
2023-01-17T23:06:46.370Z,4.10
2023-01-17T23:09:35.160Z,4.20
2023-01-17T23:12:25.291Z,4.20
2023-01-17T23:15:31.592Z,4.20
2023-01-17T23:18:37.621Z,4.40
2023-01-17T23:21:46.398Z,4.20
2023-01-17T23:24:35.173Z,4.10
2023-01-17T23:27:44.739Z,4.10
2023-01-17T23:30:35.641Z,4.20
2023-01-17T23:33:24.827Z,4.30
2023-01-17T23:36:13.648Z,4.20
2023-01-17T23:39:02.485Z,4.00
2023-01-17T23:42:08.674Z,4.10
2023-01-17T23:44:58.698Z,3.90
2023-01-17T23:47:47.835Z,3.90
2023-01-17T23:50:37.005Z,3.90
2023-01-17T23:53:26.251Z,4.00
2023-01-17T23:56:18.519Z,4.00
2023-01-17T23:59:07.566Z,4.10
